createdAt,value
2023-06-26T00:01:04.116Z,10.60
2023-06-26T00:03:30.650Z,11.15
2023-06-26T00:06:01.407Z,11.98
2023-06-26T00:10:55.383Z,12.90
2023-06-26T00:13:23.091Z,12.35
2023-06-26T00:15:49.607Z,12.80
2023-06-26T00:18:16.135Z,11.60
2023-06-26T00:20:42.633Z,11.63
2023-06-26T00:23:09.139Z,11.98
2023-06-26T00:25:35.881Z,12.55
2023-06-26T00:28:02.586Z,12.80
2023-06-26T00:30:29.072Z,12.18
2023-06-26T00:32:55.662Z,12.48
2023-06-26T00:35:22.178Z,12.05
2023-06-26T00:37:48.760Z,11.25
2023-06-26T00:40:15.280Z,13.30
2023-06-26T00:42:41.811Z,12.00
2023-06-26T00:45:08.520Z,12.93
2023-06-26T00:47:35.205Z,14.57
2023-06-26T00:50:02.409Z,13.02
2023-06-26T00:52:28.909Z,14.20
2023-06-26T00:54:56.427Z,13.07
2023-06-26T00:57:22.967Z,13.65
2023-06-26T00:59:50.215Z,14.10
2023-06-26T01:02:21.096Z,13.43
2023-06-26T01:07:19.768Z,14.70
2023-06-26T01:09:49.853Z,14.25
2023-06-26T01:12:16.453Z,15.85
2023-06-26T01:17:16.446Z,14.43
2023-06-26T01:19:44.599Z,14.90
2023-06-26T01:22:21.460Z,16.35
2023-06-26T01:25:11.214Z,16.40
2023-06-26T01:27:39.178Z,14.27
2023-06-26T01:30:07.829Z,15.65
2023-06-26T01:32:34.861Z,15.77
2023-06-26T01:35:02.932Z,14.38
2023-06-26T01:37:29.386Z,14.43
2023-06-26T01:39:55.890Z,14.23
2023-06-26T01:42:22.465Z,13.23
2023-06-26T01:44:49.697Z,13.90
2023-06-26T01:47:23.012Z,13.27
2023-06-26T01:49:52.399Z,14.90
2023-06-26T01:52:36.999Z,13.27
2023-06-26T01:55:15.519Z,13.50
2023-06-26T01:57:43.436Z,14.10
2023-06-26T02:00:12.219Z,14.30
2023-06-26T02:02:38.840Z,14.85
2023-06-26T02:05:05.549Z,15.23
2023-06-26T02:07:32.300Z,13.68
2023-06-26T02:09:58.900Z,15.00
2023-06-26T02:12:25.386Z,14.05
2023-06-26T02:14:52.203Z,15.25
2023-06-26T02:17:18.899Z,13.77
2023-06-26T02:19:48.394Z,15.30
2023-06-26T02:22:16.148Z,13.93
2023-06-26T02:24:44.011Z,14.07
2023-06-26T02:27:11.014Z,14.65
2023-06-26T02:29:38.087Z,14.82
2023-06-26T02:32:04.869Z,14.32
2023-06-26T02:34:31.366Z,15.57
2023-06-26T02:36:59.515Z,15.32
2023-06-26T02:39:25.988Z,14.18
2023-06-26T02:41:52.666Z,14.88
2023-06-26T02:44:19.626Z,14.55
2023-06-26T02:46:46.302Z,14.85
2023-06-26T02:49:12.847Z,14.35
2023-06-26T02:51:39.348Z,14.20
2023-06-26T02:54:05.814Z,14.63
2023-06-26T02:56:32.898Z,14.27
2023-06-26T02:58:59.643Z,14.27
2023-06-26T03:01:26.451Z,14.13
2023-06-26T03:03:53.755Z,15.38
2023-06-26T03:06:20.312Z,14.20
2023-06-26T03:08:46.827Z,15.68
2023-06-26T03:11:13.425Z,15.35
2023-06-26T03:13:39.898Z,14.32
2023-06-26T03:16:06.455Z,14.95
2023-06-26T03:18:33.043Z,15.23
2023-06-26T03:21:01.024Z,16.48
2023-06-26T03:23:27.707Z,14.32
2023-06-26T03:25:54.378Z,15.40
2023-06-26T03:28:20.867Z,15.52
2023-06-26T03:30:47.355Z,15.10
2023-06-26T03:33:13.901Z,15.55
2023-06-26T03:35:40.423Z,16.35
2023-06-26T03:38:06.957Z,16.13
2023-06-26T03:40:33.443Z,14.40
2023-06-26T03:42:59.923Z,14.95
2023-06-26T03:45:26.679Z,15.38
2023-06-26T03:47:53.245Z,14.43
2023-06-26T03:50:20.318Z,15.73
2023-06-26T03:52:46.985Z,15.98
2023-06-26T03:55:13.622Z,14.63
2023-06-26T03:57:40.242Z,14.55
2023-06-26T04:00:09.478Z,15.18
2023-06-26T04:02:36.665Z,14.75
2023-06-26T04:05:05.234Z,16.77
2023-06-26T04:07:32.264Z,18.25
2023-06-26T04:09:59.161Z,17.17
2023-06-26T04:12:25.656Z,15.48
2023-06-26T04:14:52.188Z,16.98
2023-06-26T04:17:18.769Z,16.08
2023-06-26T04:19:45.299Z,16.80
2023-06-26T04:22:11.781Z,17.48
2023-06-26T04:24:38.274Z,17.02
2023-06-26T04:27:05.049Z,17.65
2023-06-26T04:29:31.566Z,17.63
2023-06-26T04:32:01.087Z,17.48
2023-06-26T04:34:28.750Z,16.85
2023-06-26T04:36:55.748Z,17.55
2023-06-26T04:39:22.268Z,17.20
2023-06-26T04:41:49.919Z,17.58
2023-06-26T04:44:16.684Z,19.42
2023-06-26T04:46:43.177Z,17.10
2023-06-26T04:49:10.163Z,17.50
2023-06-26T04:51:41.595Z,18.90
2023-06-26T04:54:09.325Z,18.65
2023-06-26T04:56:36.441Z,17.95
2023-06-26T04:59:03.977Z,17.55
2023-06-26T05:01:31.048Z,17.20
2023-06-26T05:03:59.093Z,16.55
2023-06-26T05:06:25.787Z,18.08
2023-06-26T05:08:52.238Z,16.65
2023-06-26T05:11:18.868Z,16.05
2023-06-26T05:13:45.346Z,17.02
2023-06-26T05:16:11.908Z,17.13
2023-06-26T05:18:38.384Z,16.90
2023-06-26T05:21:05.225Z,17.42
2023-06-26T05:23:32.879Z,16.02
2023-06-26T05:25:59.724Z,16.23
2023-06-26T05:28:28.419Z,15.60
2023-06-26T05:30:58.893Z,15.48
2023-06-26T05:33:27.462Z,15.85
2023-06-26T05:35:55.438Z,14.73
2023-06-26T05:38:22.374Z,14.30
2023-06-26T05:40:49.034Z,13.75
2023-06-26T05:43:15.873Z,14.50
2023-06-26T05:45:42.434Z,13.60
2023-06-26T05:48:09.245Z,13.23
2023-06-26T05:50:36.876Z,14.75
2023-06-26T05:53:06.730Z,13.23
2023-06-26T05:55:33.513Z,12.82
2023-06-26T05:58:00.799Z,12.70
2023-06-26T06:00:28.120Z,13.07
2023-06-26T06:02:55.232Z,12.10
2023-06-26T06:05:23.368Z,12.80
2023-06-26T06:07:51.009Z,12.38
2023-06-26T06:10:17.709Z,11.63
2023-06-26T06:12:44.239Z,11.15
2023-06-26T06:15:10.758Z,11.68
2023-06-26T06:17:37.273Z,11.48
2023-06-26T06:20:04.636Z,10.82
2023-06-26T06:22:31.220Z,9.93
2023-06-26T06:24:57.724Z,10.05
2023-06-26T06:27:24.274Z,10.45
2023-06-26T06:29:50.813Z,9.95
2023-06-26T06:32:17.539Z,9.38
2023-06-26T06:34:44.016Z,9.55
2023-06-26T06:37:10.611Z,9.27
2023-06-26T06:39:37.068Z,10.32
2023-06-26T06:42:03.738Z,10.88
2023-06-26T06:44:31.634Z,10.75
2023-06-26T06:46:58.403Z,10.27
2023-06-26T06:49:24.936Z,9.77
2023-06-26T06:51:51.414Z,9.90
2023-06-26T06:54:18.300Z,10.05
2023-06-26T06:56:44.819Z,9.80
2023-06-26T06:59:11.504Z,10.68
2023-06-26T07:01:38.373Z,9.88
2023-06-26T07:04:05.311Z,10.13
2023-06-26T07:06:31.939Z,11.00
2023-06-26T07:08:58.457Z,8.88
2023-06-26T07:11:24.928Z,8.80
2023-06-26T07:13:51.442Z,8.77
2023-06-26T07:16:18.058Z,8.98
2023-06-26T07:18:44.884Z,9.43
2023-06-26T07:21:11.526Z,9.13
2023-06-26T07:23:38.118Z,8.57
2023-06-26T07:26:04.760Z,8.85
2023-06-26T07:28:31.269Z,8.73
2023-06-26T07:30:57.780Z,8.25
2023-06-26T07:33:24.674Z,8.18
2023-06-26T07:35:51.265Z,8.40
2023-06-26T07:38:17.773Z,8.32
2023-06-26T07:40:44.280Z,6.97
2023-06-26T07:43:10.789Z,7.55
2023-06-26T07:45:37.338Z,7.97
2023-06-26T07:48:03.979Z,7.93
2023-06-26T07:50:30.504Z,7.43
2023-06-26T07:52:57.016Z,7.68
2023-06-26T07:55:23.585Z,6.15
2023-06-26T07:57:53.166Z,5.97
2023-06-26T08:00:19.802Z,6.88
2023-06-26T08:02:46.587Z,6.45
2023-06-26T08:05:13.419Z,5.88
2023-06-26T08:07:40.321Z,6.65
2023-06-26T08:10:07.068Z,5.53
2023-06-26T08:12:33.727Z,5.70
2023-06-26T08:15:01.939Z,5.18
2023-06-26T08:17:30.264Z,4.53
2023-06-26T08:19:57.148Z,5.65
2023-06-26T08:22:23.688Z,4.40
2023-06-26T08:24:50.177Z,5.72
2023-06-26T08:27:16.920Z,5.20
2023-06-26T08:29:43.545Z,5.15
2023-06-26T08:32:10.150Z,5.05
2023-06-26T08:34:36.642Z,4.97
2023-06-26T08:37:03.264Z,4.60
2023-06-26T08:39:30.721Z,4.40
2023-06-26T08:41:57.746Z,4.97
2023-06-26T08:44:25.809Z,4.93
2023-06-26T08:46:53.137Z,4.68
2023-06-26T08:49:26.457Z,4.80
2023-06-26T08:51:57.644Z,4.70
2023-06-26T08:54:32.141Z,4.70
2023-06-26T08:57:00.030Z,4.60
2023-06-26T08:59:26.876Z,5.00
2023-06-26T09:01:53.816Z,4.05
2023-06-26T09:04:20.389Z,3.92
2023-06-26T09:06:46.974Z,4.00
2023-06-26T09:09:13.877Z,4.03
2023-06-26T09:11:40.609Z,3.65
2023-06-26T09:14:10.300Z,3.88
2023-06-26T09:16:45.678Z,3.90
2023-06-26T09:19:13.619Z,3.58
2023-06-26T09:21:44.336Z,3.33
2023-06-26T09:24:12.004Z,3.33
2023-06-26T09:26:39.622Z,3.80
2023-06-26T09:29:06.897Z,4.00
2023-06-26T09:31:41.326Z,4.10
2023-06-26T09:34:08.930Z,3.08
2023-06-26T09:36:39.625Z,3.15
2023-06-26T09:39:12.314Z,3.00
2023-06-26T09:41:39.761Z,3.63
2023-06-26T09:44:06.844Z,3.88
2023-06-26T09:46:33.747Z,3.42
2023-06-26T09:49:08.857Z,3.40
2023-06-26T09:51:36.971Z,3.80
2023-06-26T09:54:04.764Z,3.75
2023-06-26T09:56:34.028Z,3.38
2023-06-26T09:59:03.572Z,3.95
2023-06-26T10:01:31.921Z,3.53
2023-06-26T10:03:58.966Z,3.78
2023-06-26T10:06:32.673Z,3.50
2023-06-26T10:09:01.101Z,3.85
2023-06-26T10:11:35.966Z,3.00
2023-06-26T10:14:16.966Z,3.72
2023-06-26T10:16:47.426Z,3.58
2023-06-26T10:19:15.541Z,3.70
2023-06-26T10:21:42.946Z,3.65
2023-06-26T10:24:13.657Z,4.55
2023-06-26T10:26:45.977Z,4.25
2023-06-26T10:29:15.679Z,3.45
2023-06-26T10:31:46.622Z,3.55
2023-06-26T10:34:13.766Z,3.00
2023-06-26T10:36:40.283Z,3.45
2023-06-26T10:39:07.757Z,3.95
2023-06-26T10:41:56.832Z,3.63
2023-06-26T10:44:42.329Z,3.40
2023-06-26T10:47:08.882Z,3.80
2023-06-26T10:49:37.945Z,3.28
2023-06-26T10:52:04.686Z,3.53
2023-06-26T10:54:33.001Z,3.65
2023-06-26T10:56:59.982Z,3.58
2023-06-26T10:59:28.766Z,3.55
2023-06-26T11:02:05.871Z,3.55
2023-06-26T11:04:47.772Z,3.55
2023-06-26T11:07:25.323Z,4.10
2023-06-26T11:10:03.502Z,4.25
2023-06-26T11:12:39.531Z,3.92
2023-06-26T11:15:14.705Z,3.53
2023-06-26T11:17:43.125Z,3.65
2023-06-26T11:20:11.949Z,3.78
2023-06-26T11:22:39.836Z,3.67
2023-06-26T11:25:07.772Z,3.80
2023-06-26T11:27:41.596Z,4.35
2023-06-26T11:30:10.933Z,3.80
2023-06-26T11:32:38.642Z,4.00
2023-06-26T11:35:06.033Z,3.97
2023-06-26T11:37:35.978Z,4.13
2023-06-26T11:42:44.229Z,4.57
2023-06-26T11:45:10.779Z,4.07
2023-06-26T11:47:40.338Z,4.38
2023-06-26T11:50:06.990Z,4.68
2023-06-26T11:52:34.513Z,4.60
2023-06-26T11:55:01.048Z,4.55
2023-06-26T11:57:27.519Z,4.63
2023-06-26T11:59:54.049Z,4.70
2023-06-26T12:02:22.286Z,4.03
2023-06-26T12:04:49.239Z,5.00
2023-06-26T12:07:17.839Z,4.32
2023-06-26T12:09:47.785Z,4.70
2023-06-26T12:12:17.405Z,4.88
2023-06-26T12:14:44.004Z,4.30
2023-06-26T12:17:13.066Z,4.43
2023-06-26T12:19:49.391Z,5.00
2023-06-26T12:22:17.064Z,4.95
2023-06-26T12:24:44.889Z,4.70
2023-06-26T12:27:13.977Z,4.50
2023-06-26T12:29:46.682Z,5.22
2023-06-26T12:32:15.417Z,4.82
2023-06-26T12:34:41.950Z,5.15
2023-06-26T12:37:10.441Z,4.50
2023-06-26T12:40:24.596Z,4.50
2023-06-26T12:42:51.105Z,4.90
2023-06-26T12:50:13.890Z,4.85
2023-06-26T12:52:40.385Z,4.93
2023-06-26T12:55:07.513Z,5.00
2023-06-26T12:57:34.082Z,5.10
2023-06-26T13:00:01.961Z,4.30
2023-06-26T13:02:29.828Z,4.50
2023-06-26T13:04:56.431Z,4.35
2023-06-26T13:07:26.350Z,4.57
2023-06-26T13:09:53.073Z,3.75
2023-06-26T13:12:19.585Z,4.50
2023-06-26T13:14:46.067Z,4.85
2023-06-26T13:17:12.803Z,5.38
2023-06-26T13:19:39.283Z,4.57
2023-06-26T13:22:06.220Z,4.10
2023-06-26T13:24:32.740Z,4.40
2023-06-26T13:26:59.258Z,4.90
2023-06-26T13:29:26.387Z,4.88
2023-06-26T13:31:52.927Z,4.13
2023-06-26T13:34:28.625Z,4.28
2023-06-26T13:36:55.638Z,4.15
2023-06-26T13:39:22.190Z,4.72
2023-06-26T13:41:48.731Z,4.60
2023-06-26T13:44:19.548Z,4.20
2023-06-26T13:46:58.537Z,4.43
2023-06-26T13:49:25.047Z,4.88
2023-06-26T13:51:51.545Z,4.55
2023-06-26T13:54:19.445Z,5.53
2023-06-26T13:56:45.987Z,5.10
2023-06-26T13:59:13.016Z,5.43
2023-06-26T14:01:40.788Z,5.20
2023-06-26T14:04:07.520Z,4.93
2023-06-26T14:06:35.589Z,5.80
2023-06-26T14:09:02.091Z,6.82
2023-06-26T14:11:28.764Z,6.45
2023-06-26T14:13:55.276Z,9.07
2023-06-26T14:16:38.882Z,13.45
2023-06-26T14:19:05.792Z,8.05
2023-06-26T14:21:32.386Z,10.38
2023-06-26T14:23:58.937Z,10.43
2023-06-26T14:26:25.511Z,9.48
2023-06-26T14:28:53.220Z,6.13
2023-06-26T14:31:19.799Z,5.50
2023-06-26T14:33:46.359Z,4.28
2023-06-26T14:36:12.936Z,5.18
2023-06-26T14:38:39.497Z,5.03
2023-06-26T14:41:06.510Z,5.95
2023-06-26T14:43:33.463Z,7.25
2023-06-26T14:46:00.579Z,7.65
2023-06-26T14:48:30.592Z,8.07
2023-06-26T14:50:57.454Z,9.38
2023-06-26T14:53:23.984Z,9.88
2023-06-26T14:55:50.593Z,8.05
2023-06-26T14:58:17.046Z,9.73
2023-06-26T15:00:44.921Z,8.00
2023-06-26T15:03:11.523Z,9.68
2023-06-26T15:05:38.213Z,9.98
2023-06-26T15:08:04.871Z,9.23
2023-06-26T15:10:33.251Z,10.50
2023-06-26T15:13:00.646Z,8.07
2023-06-26T15:15:27.262Z,7.97
2023-06-26T15:17:53.786Z,7.35
2023-06-26T15:20:20.325Z,8.23
2023-06-26T15:22:46.798Z,7.75
2023-06-26T15:25:13.302Z,8.27
2023-06-26T15:27:39.927Z,9.55
2023-06-26T15:30:07.328Z,10.20
2023-06-26T15:32:34.157Z,9.10
2023-06-26T15:35:01.315Z,10.00
2023-06-26T15:37:27.857Z,11.32
2023-06-26T15:39:54.428Z,9.63
2023-06-26T15:42:20.963Z,10.10
2023-06-26T15:44:47.445Z,8.57
2023-06-26T15:47:13.975Z,8.23
2023-06-26T15:49:40.470Z,8.05
2023-06-26T15:52:07.257Z,8.48
2023-06-26T15:54:33.756Z,7.60
2023-06-26T15:57:00.484Z,6.32
2023-06-26T15:59:27.012Z,6.90
2023-06-26T16:01:55.684Z,6.10
2023-06-26T16:04:25.109Z,6.45
2023-06-26T16:06:51.703Z,6.75
2023-06-26T16:09:18.279Z,6.45
2023-06-26T16:11:44.794Z,5.78
2023-06-26T16:14:11.506Z,6.53
2023-06-26T16:16:38.056Z,6.95
2023-06-26T16:19:05.090Z,5.70
2023-06-26T16:21:31.766Z,6.32
2023-06-26T16:23:58.411Z,6.80
2023-06-26T16:26:24.933Z,6.55
2023-06-26T16:28:51.541Z,6.88
2023-06-26T16:31:18.756Z,6.78
2023-06-26T16:33:45.779Z,5.88
2023-06-26T16:36:12.598Z,5.57
2023-06-26T16:38:42.305Z,6.85
2023-06-26T16:41:09.848Z,9.88
2023-06-26T16:43:36.836Z,8.48
2023-06-26T16:46:03.398Z,6.43
2023-06-26T16:48:30.175Z,7.07
2023-06-26T16:50:56.760Z,6.53
2023-06-26T16:53:23.293Z,6.40
2023-06-26T16:55:49.889Z,5.95
2023-06-26T16:58:16.463Z,6.90
2023-06-26T17:00:43.457Z,6.95
2023-06-26T17:03:10.386Z,6.82
2023-06-26T17:05:37.387Z,5.60
2023-06-26T17:08:04.730Z,5.75
2023-06-26T17:10:31.715Z,8.23
2023-06-26T17:12:58.261Z,6.13
2023-06-26T17:15:25.630Z,5.97
2023-06-26T17:17:53.221Z,6.15
2023-06-26T17:20:20.221Z,5.07
2023-06-26T17:22:48.370Z,6.03
2023-06-26T17:25:15.230Z,6.82
2023-06-26T17:27:42.355Z,6.32
2023-06-26T17:30:09.780Z,5.22
2023-06-26T17:32:36.481Z,5.88
2023-06-26T17:35:03.289Z,5.50
2023-06-26T17:37:30.012Z,6.35
2023-06-26T17:39:56.740Z,5.80
2023-06-26T17:42:23.583Z,6.65
2023-06-26T17:44:50.781Z,6.00
2023-06-26T17:47:17.306Z,4.97
2023-06-26T17:49:43.964Z,5.78
2023-06-26T17:52:10.672Z,5.60
2023-06-26T17:54:37.205Z,7.85
2023-06-26T17:57:03.883Z,6.00
2023-06-26T17:59:30.359Z,5.22
2023-06-26T18:01:59.682Z,6.28
2023-06-26T18:04:26.801Z,5.85
2023-06-26T18:06:53.629Z,6.35
2023-06-26T18:09:20.151Z,7.47
2023-06-26T18:11:46.615Z,15.20
2023-06-26T18:14:13.205Z,5.57
2023-06-26T18:16:40.038Z,6.43
2023-06-26T18:19:06.615Z,5.93
2023-06-26T18:21:33.157Z,5.68
2023-06-26T18:23:59.837Z,5.75
2023-06-26T18:26:26.295Z,7.15
2023-06-26T18:28:54.182Z,5.55
2023-06-26T18:31:21.780Z,8.45
2023-06-26T18:33:49.225Z,7.32
2023-06-26T18:36:16.393Z,8.20
2023-06-26T18:38:43.975Z,5.75
2023-06-26T18:41:11.641Z,5.60
2023-06-26T18:43:41.240Z,6.13
2023-06-26T18:46:07.788Z,4.38
2023-06-26T18:48:34.320Z,4.97
2023-06-26T18:51:01.027Z,3.75
2023-06-26T18:53:27.684Z,3.97
2023-06-26T18:55:54.218Z,3.78
2023-06-26T18:58:20.721Z,3.05
2023-06-26T19:00:47.274Z,3.70
2023-06-26T19:03:14.004Z,3.00
2023-06-26T19:05:40.884Z,2.78
2023-06-26T19:08:07.764Z,3.10
2023-06-26T19:10:36.011Z,2.65
2023-06-26T19:13:02.537Z,2.58
2023-06-26T19:15:29.250Z,2.40
2023-06-26T19:17:55.929Z,3.13
2023-06-26T19:20:22.633Z,2.40
2023-06-26T19:22:49.338Z,2.70
2023-06-26T19:25:16.022Z,3.38
2023-06-26T19:27:44.313Z,41.53
2023-06-26T19:30:11.445Z,7.93
2023-06-26T19:32:38.167Z,2.40
2023-06-26T19:35:05.238Z,2.78
2023-06-26T19:37:31.761Z,2.25
2023-06-26T19:39:58.899Z,2.85
2023-06-26T19:42:25.500Z,3.08
2023-06-26T19:44:51.990Z,2.60
2023-06-26T19:47:18.564Z,2.70
2023-06-26T19:49:45.617Z,2.47
2023-06-26T19:52:12.327Z,2.55
2023-06-26T19:54:38.840Z,2.47
2023-06-26T19:57:06.044Z,1.98
2023-06-26T19:59:32.625Z,2.55
2023-06-26T20:01:59.159Z,2.38
2023-06-26T20:04:25.971Z,2.05
2023-06-26T20:06:52.620Z,2.22
2023-06-26T20:09:19.320Z,2.00
2023-06-26T20:11:45.919Z,2.53
2023-06-26T20:14:12.447Z,2.28
2023-06-26T20:16:38.979Z,2.17
2023-06-26T20:19:07.257Z,2.38
2023-06-26T20:21:34.142Z,2.35
2023-06-26T20:24:00.640Z,2.53
2023-06-26T20:26:27.502Z,6.47
2023-06-26T20:28:54.116Z,18.00
2023-06-26T20:31:20.758Z,2.97
2023-06-26T20:33:47.279Z,1.50
2023-06-26T20:36:14.584Z,2.05
2023-06-26T20:38:41.306Z,2.00
2023-06-26T20:41:08.212Z,2.17
2023-06-26T20:43:34.990Z,2.60
2023-06-26T20:46:02.011Z,1.88
2023-06-26T20:48:29.277Z,1.30
2023-06-26T20:50:56.547Z,2.17
2023-06-26T20:53:24.345Z,1.55
2023-06-26T20:55:51.287Z,1.23
2023-06-26T20:58:17.773Z,41.70
2023-06-26T21:00:44.437Z,12.63
2023-06-26T21:03:11.094Z,9.32
2023-06-26T21:05:37.849Z,1.45
2023-06-26T21:08:04.544Z,1.48
2023-06-26T21:10:31.041Z,1.30
2023-06-26T21:12:57.620Z,1.05
2023-06-26T21:15:24.106Z,1.92
2023-06-26T21:17:50.660Z,1.40
2023-06-26T21:20:17.323Z,1.20
2023-06-26T21:22:43.849Z,1.08
2023-06-26T21:25:10.388Z,1.08
2023-06-26T21:27:36.896Z,1.15
2023-06-26T21:30:06.435Z,1.20
2023-06-26T21:32:32.991Z,1.23
2023-06-26T21:35:01.436Z,1.25
2023-06-26T21:37:27.957Z,1.08
2023-06-26T21:39:54.473Z,1.63
2023-06-26T21:42:20.998Z,1.05
2023-06-26T21:44:47.514Z,1.23
2023-06-26T21:47:14.017Z,1.23
2023-06-26T21:49:40.600Z,1.23
2023-06-26T21:52:07.403Z,1.80
2023-06-26T21:54:33.884Z,1.05
2023-06-26T21:57:00.358Z,1.70
2023-06-26T21:59:26.971Z,1.60
2023-06-26T22:01:53.680Z,1.50
2023-06-26T22:04:20.244Z,1.45
2023-06-26T22:06:46.741Z,1.50
2023-06-26T22:09:13.336Z,1.60
2023-06-26T22:11:39.823Z,1.40
2023-06-26T22:14:06.404Z,1.60
2023-06-26T22:16:32.927Z,1.85
2023-06-26T22:18:59.476Z,1.50
2023-06-26T22:21:26.003Z,1.40
2023-06-26T22:23:52.620Z,1.55
2023-06-26T22:26:19.276Z,1.50
2023-06-26T22:28:46.634Z,1.33
2023-06-26T22:31:13.145Z,1.55
2023-06-26T22:33:39.704Z,1.90
2023-06-26T22:36:06.355Z,2.17
2023-06-26T22:38:32.842Z,1.30
2023-06-26T22:40:59.380Z,1.42
2023-06-26T22:43:25.955Z,1.70
2023-06-26T22:45:52.518Z,1.75
2023-06-26T22:48:19.312Z,1.52
2023-06-26T22:50:47.612Z,2.08
2023-06-26T22:53:18.693Z,1.42
2023-06-26T22:55:46.032Z,1.73
2023-06-26T22:58:12.914Z,1.58
2023-06-26T23:00:39.527Z,2.10
2023-06-26T23:03:06.091Z,1.17
2023-06-26T23:05:32.745Z,1.75
2023-06-26T23:08:03.111Z,1.75
2023-06-26T23:10:30.354Z,1.95
2023-06-26T23:12:56.864Z,1.85
2023-06-26T23:15:23.493Z,1.73
2023-06-26T23:17:50.025Z,3.25
2023-06-26T23:20:17.642Z,2.15
2023-06-26T23:22:44.231Z,1.63
2023-06-26T23:25:10.991Z,1.30
2023-06-26T23:27:42.741Z,1.70
2023-06-26T23:30:12.412Z,1.70
2023-06-26T23:32:41.516Z,1.63
2023-06-26T23:35:11.066Z,2.35
2023-06-26T23:37:38.649Z,2.28
2023-06-26T23:40:10.484Z,1.92
2023-06-26T23:42:38.348Z,1.90
2023-06-26T23:45:05.930Z,1.90
2023-06-26T23:47:32.624Z,2.00
2023-06-26T23:49:59.298Z,2.00
2023-06-26T23:52:26.173Z,2.65
2023-06-26T23:54:54.367Z,1.85
2023-06-26T23:57:20.996Z,2.03
2023-06-26T23:59:47.477Z,2.00
